sensor_id;sensor_type;location;lat;lon;timestamp;temperature;humidity
51035;DHT22;37062;52.546;13.230;2023-06-22T00:00:40;23.10;99.90
51035;DHT22;37062;52.546;13.230;2023-06-22T00:03:09;23.10;99.90
51035;DHT22;37062;52.546;13.230;2023-06-22T00:05:37;23.10;99.90
51035;DHT22;37062;52.546;13.230;2023-06-22T00:08:06;23.00;99.90
51035;DHT22;37062;52.546;13.230;2023-06-22T00:10:34;23.00;99.90
51035;DHT22;37062;52.546;13.230;2023-06-22T00:13:04;23.00;99.90
51035;DHT22;37062;52.546;13.230;2023-06-22T00:15:33;23.00;99.90
51035;DHT22;37062;52.546;13.230;2023-06-22T00:18:01;23.00;99.90
51035;DHT22;37062;52.546;13.230;2023-06-22T00:20:29;23.00;99.90
51035;DHT22;37062;52.546;13.230;2023-06-22T00:22:59;23.00;99.90
51035;DHT22;37062;52.546;13.230;2023-06-22T00:25:28;22.90;99.90
51035;DHT22;37062;52.546;13.230;2023-06-22T00:27:56;22.90;99.90
51035;DHT22;37062;52.546;13.230;2023-06-22T00:30:26;22.90;99.90
51035;DHT22;37062;52.546;13.230;2023-06-22T00:32:57;22.80;99.90
51035;DHT22;37062;52.546;13.230;2023-06-22T00:35:26;22.80;99.90
51035;DHT22;37062;52.546;13.230;2023-06-22T00:37:57;22.80;99.90
51035;DHT22;37062;52.546;13.230;2023-06-22T00:40:28;22.70;99.90
51035;DHT22;37062;52.546;13.230;2023-06-22T00:42:57;22.70;99.90
51035;DHT22;37062;52.546;13.230;2023-06-22T00:45:27;22.70;99.90
51035;DHT22;37062;52.546;13.230;2023-06-22T00:47:57;22.70;99.90
51035;DHT22;37062;52.546;13.230;2023-06-22T00:50:28;22.60;99.90
51035;DHT22;37062;52.546;13.230;2023-06-22T00:53:03;22.60;99.90
51035;DHT22;37062;52.546;13.230;2023-06-22T00:55:37;22.60;99.90
51035;DHT22;37062;52.546;13.230;2023-06-22T00:58:06;22.50;99.90
51035;DHT22;37062;52.546;13.230;2023-06-22T01:00:40;22.40;99.90
51035;DHT22;37062;52.546;13.230;2023-06-22T01:03:09;22.40;99.90
51035;DHT22;37062;52.546;13.230;2023-06-22T01:05:38;22.30;99.90
51035;DHT22;37062;52.546;13.230;2023-06-22T01:08:16;22.30;99.90
51035;DHT22;37062;52.546;13.230;2023-06-22T01:10:50;22.30;99.90
51035;DHT22;37062;52.546;13.230;2023-06-22T01:13:26;22.30;99.90
51035;DHT22;37062;52.546;13.230;2023-06-22T01:16:03;22.10;99.90
51035;DHT22;37062;52.546;13.230;2023-06-22T01:18:35;22.10;99.90
51035;DHT22;37062;52.546;13.230;2023-06-22T01:21:05;22.00;99.90
51035;DHT22;37062;52.546;13.230;2023-06-22T01:23:51;22.00;99.90
51035;DHT22;37062;52.546;13.230;2023-06-22T01:26:28;21.90;99.90
51035;DHT22;37062;52.546;13.230;2023-06-22T01:29:04;21.90;99.90
51035;DHT22;37062;52.546;13.230;2023-06-22T01:31:33;21.90;99.90
51035;DHT22;37062;52.546;13.230;2023-06-22T01:34:04;21.90;99.90
51035;DHT22;37062;52.546;13.230;2023-06-22T01:36:33;21.80;99.90
51035;DHT22;37062;52.546;13.230;2023-06-22T01:39:02;21.80;99.90
51035;DHT22;37062;52.546;13.230;2023-06-22T01:41:36;21.80;99.90
51035;DHT22;37062;52.546;13.230;2023-06-22T01:44:07;21.80;99.90
51035;DHT22;37062;52.546;13.230;2023-06-22T01:46:37;21.80;99.90
51035;DHT22;37062;52.546;13.230;2023-06-22T01:49:07;21.80;99.90
51035;DHT22;37062;52.546;13.230;2023-06-22T01:51:36;21.80;99.90
51035;DHT22;37062;52.546;13.230;2023-06-22T01:54:06;21.80;99.90
51035;DHT22;37062;52.546;13.230;2023-06-22T01:56:35;21.70;99.90
51035;DHT22;37062;52.546;13.230;2023-06-22T01:59:09;21.70;99.90
51035;DHT22;37062;52.546;13.230;2023-06-22T02:01:43;21.70;99.90
51035;DHT22;37062;52.546;13.230;2023-06-22T02:04:16;21.70;99.90
51035;DHT22;37062;52.546;13.230;2023-06-22T02:06:47;21.70;99.90
51035;DHT22;37062;52.546;13.230;2023-06-22T02:09:18;21.70;99.90
51035;DHT22;37062;52.546;13.230;2023-06-22T02:11:50;21.60;99.90
51035;DHT22;37062;52.546;13.230;2023-06-22T02:14:24;21.60;99.90
51035;DHT22;37062;52.546;13.230;2023-06-22T02:16:54;21.50;99.90
51035;DHT22;37062;52.546;13.230;2023-06-22T02:19:27;21.40;99.90
51035;DHT22;37062;52.546;13.230;2023-06-22T02:22:00;21.50;99.90
51035;DHT22;37062;52.546;13.230;2023-06-22T02:24:28;21.50;99.90
51035;DHT22;37062;52.546;13.230;2023-06-22T02:26:59;21.40;99.90
51035;DHT22;37062;52.546;13.230;2023-06-22T02:29:29;21.40;99.90
51035;DHT22;37062;52.546;13.230;2023-06-22T02:31:57;21.30;99.90
51035;DHT22;37062;52.546;13.230;2023-06-22T02:34:25;21.40;99.90
51035;DHT22;37062;52.546;13.230;2023-06-22T02:36:53;21.50;99.90
51035;DHT22;37062;52.546;13.230;2023-06-22T02:39:23;21.40;99.90
51035;DHT22;37062;52.546;13.230;2023-06-22T02:41:53;21.50;99.90
51035;DHT22;37062;52.546;13.230;2023-06-22T02:44:22;21.50;99.90
51035;DHT22;37062;52.546;13.230;2023-06-22T02:46:51;21.60;99.90
51035;DHT22;37062;52.546;13.230;2023-06-22T02:49:21;21.50;99.90
51035;DHT22;37062;52.546;13.230;2023-06-22T02:51:50;21.50;99.90
51035;DHT22;37062;52.546;13.230;2023-06-22T02:54:20;21.50;99.90
51035;DHT22;37062;52.546;13.230;2023-06-22T02:56:51;21.50;99.90
51035;DHT22;37062;52.546;13.230;2023-06-22T02:59:21;21.50;99.90
51035;DHT22;37062;52.546;13.230;2023-06-22T03:01:56;21.40;99.90
51035;DHT22;37062;52.546;13.230;2023-06-22T03:04:28;21.50;99.90
51035;DHT22;37062;52.546;13.230;2023-06-22T03:06:58;21.50;99.90
51035;DHT22;37062;52.546;13.230;2023-06-22T03:09:30;21.50;99.90
51035;DHT22;37062;52.546;13.230;2023-06-22T03:11:58;21.50;99.90
51035;DHT22;37062;52.546;13.230;2023-06-22T03:14:34;21.50;99.90
51035;DHT22;37062;52.546;13.230;2023-06-22T03:17:05;21.50;99.90
51035;DHT22;37062;52.546;13.230;2023-06-22T03:19:35;21.50;99.90
51035;DHT22;37062;52.546;13.230;2023-06-22T03:22:04;21.50;99.90
51035;DHT22;37062;52.546;13.230;2023-06-22T03:24:32;21.50;99.90
51035;DHT22;37062;52.546;13.230;2023-06-22T03:27:01;21.40;99.90
51035;DHT22;37062;52.546;13.230;2023-06-22T03:29:33;21.50;99.90
51035;DHT22;37062;52.546;13.230;2023-06-22T03:32:02;21.50;99.90
51035;DHT22;37062;52.546;13.230;2023-06-22T03:34:33;21.50;99.90
51035;DHT22;37062;52.546;13.230;2023-06-22T03:37:04;21.60;99.90
51035;DHT22;37062;52.546;13.230;2023-06-22T03:39:32;21.60;99.90
51035;DHT22;37062;52.546;13.230;2023-06-22T03:42:00;21.60;99.90
51035;DHT22;37062;52.546;13.230;2023-06-22T03:44:28;21.60;99.90
51035;DHT22;37062;52.546;13.230;2023-06-22T03:46:58;21.60;99.90
51035;DHT22;37062;52.546;13.230;2023-06-22T03:49:26;21.70;99.90
51035;DHT22;37062;52.546;13.230;2023-06-22T03:51:56;21.70;99.90
51035;DHT22;37062;52.546;13.230;2023-06-22T03:54:24;21.80;99.90
51035;DHT22;37062;52.546;13.230;2023-06-22T03:56:52;22.10;99.90
51035;DHT22;37062;52.546;13.230;2023-06-22T03:59:20;22.30;99.90
51035;DHT22;37062;52.546;13.230;2023-06-22T04:01:49;22.50;99.90
51035;DHT22;37062;52.546;13.230;2023-06-22T04:04:17;22.80;99.90
51035;DHT22;37062;52.546;13.230;2023-06-22T04:06:46;22.90;99.90
51035;DHT22;37062;52.546;13.230;2023-06-22T04:09:15;23.10;99.90
51035;DHT22;37062;52.546;13.230;2023-06-22T04:11:44;23.40;99.90
51035;DHT22;37062;52.546;13.230;2023-06-22T04:14:12;23.50;99.90
51035;DHT22;37062;52.546;13.230;2023-06-22T04:16:41;23.60;99.90
51035;DHT22;37062;52.546;13.230;2023-06-22T04:19:09;23.70;99.90
51035;DHT22;37062;52.546;13.230;2023-06-22T04:21:43;23.80;99.90
51035;DHT22;37062;52.546;13.230;2023-06-22T04:24:11;23.90;99.90
51035;DHT22;37062;52.546;13.230;2023-06-22T04:26:41;24.10;99.90
51035;DHT22;37062;52.546;13.230;2023-06-22T04:29:12;24.30;99.90
51035;DHT22;37062;52.546;13.230;2023-06-22T04:31:40;24.40;99.90
51035;DHT22;37062;52.546;13.230;2023-06-22T04:34:09;24.50;99.90
51035;DHT22;37062;52.546;13.230;2023-06-22T04:36:40;24.50;99.90
51035;DHT22;37062;52.546;13.230;2023-06-22T04:39:09;24.60;99.90
51035;DHT22;37062;52.546;13.230;2023-06-22T04:41:38;24.60;99.90
51035;DHT22;37062;52.546;13.230;2023-06-22T04:44:12;24.60;99.90
51035;DHT22;37062;52.546;13.230;2023-06-22T04:46:40;24.60;99.90
51035;DHT22;37062;52.546;13.230;2023-06-22T04:49:09;24.60;99.90
51035;DHT22;37062;52.546;13.230;2023-06-22T04:51:39;24.70;99.90
51035;DHT22;37062;52.546;13.230;2023-06-22T04:54:08;24.80;99.90
51035;DHT22;37062;52.546;13.230;2023-06-22T04:56:37;24.70;99.90
51035;DHT22;37062;52.546;13.230;2023-06-22T04:59:11;24.60;99.90
51035;DHT22;37062;52.546;13.230;2023-06-22T05:01:40;24.50;99.90
51035;DHT22;37062;52.546;13.230;2023-06-22T05:04:08;24.40;99.90
51035;DHT22;37062;52.546;13.230;2023-06-22T05:06:37;24.30;99.90
51035;DHT22;37062;52.546;13.230;2023-06-22T05:09:07;24.30;99.90
51035;DHT22;37062;52.546;13.230;2023-06-22T05:11:35;24.40;99.90
51035;DHT22;37062;52.546;13.230;2023-06-22T05:14:03;24.40;99.90
51035;DHT22;37062;52.546;13.230;2023-06-22T05:16:33;24.50;99.90
51035;DHT22;37062;52.546;13.230;2023-06-22T05:19:01;24.50;99.90
51035;DHT22;37062;52.546;13.230;2023-06-22T05:21:31;24.50;99.90
51035;DHT22;37062;52.546;13.230;2023-06-22T05:23:59;24.50;99.90
51035;DHT22;37062;52.546;13.230;2023-06-22T05:26:29;24.50;99.90
51035;DHT22;37062;52.546;13.230;2023-06-22T05:28:58;24.60;99.90
51035;DHT22;37062;52.546;13.230;2023-06-22T05:31:27;24.60;99.90
51035;DHT22;37062;52.546;13.230;2023-06-22T05:33:57;24.70;99.90
51035;DHT22;37062;52.546;13.230;2023-06-22T05:36:26;24.60;99.90
51035;DHT22;37062;52.546;13.230;2023-06-22T05:38:56;24.70;99.90
51035;DHT22;37062;52.546;13.230;2023-06-22T05:41:24;24.80;99.90
51035;DHT22;37062;52.546;13.230;2023-06-22T05:43:53;24.90;99.90
51035;DHT22;37062;52.546;13.230;2023-06-22T05:46:21;24.90;99.90
51035;DHT22;37062;52.546;13.230;2023-06-22T05:48:49;25.00;99.90
51035;DHT22;37062;52.546;13.230;2023-06-22T05:51:19;25.00;99.90
51035;DHT22;37062;52.546;13.230;2023-06-22T05:53:47;24.90;99.90
51035;DHT22;37062;52.546;13.230;2023-06-22T05:56:17;24.90;99.90
51035;DHT22;37062;52.546;13.230;2023-06-22T05:58:46;25.00;99.90
51035;DHT22;37062;52.546;13.230;2023-06-22T06:01:14;24.90;99.90
51035;DHT22;37062;52.546;13.230;2023-06-22T06:03:43;25.10;99.90
51035;DHT22;37062;52.546;13.230;2023-06-22T06:06:11;25.40;99.90
51035;DHT22;37062;52.546;13.230;2023-06-22T06:08:41;25.70;99.90
51035;DHT22;37062;52.546;13.230;2023-06-22T06:11:09;26.00;99.90
51035;DHT22;37062;52.546;13.230;2023-06-22T06:13:38;26.40;99.90
51035;DHT22;37062;52.546;13.230;2023-06-22T06:16:06;26.70;99.90
51035;DHT22;37062;52.546;13.230;2023-06-22T06:18:34;27.00;99.90
51035;DHT22;37062;52.546;13.230;2023-06-22T06:21:04;27.50;99.90
51035;DHT22;37062;52.546;13.230;2023-06-22T06:23:32;28.00;99.90
51035;DHT22;37062;52.546;13.230;2023-06-22T06:26:02;28.20;99.90
51035;DHT22;37062;52.546;13.230;2023-06-22T06:28:34;28.60;99.90
51035;DHT22;37062;52.546;13.230;2023-06-22T06:31:02;29.10;99.90
51035;DHT22;37062;52.546;13.230;2023-06-22T06:33:34;29.10;99.90
51035;DHT22;37062;52.546;13.230;2023-06-22T06:36:02;29.30;99.90
51035;DHT22;37062;52.546;13.230;2023-06-22T06:38:30;29.00;99.90
51035;DHT22;37062;52.546;13.230;2023-06-22T06:40:59;28.70;99.90
51035;DHT22;37062;52.546;13.230;2023-06-22T06:43:28;28.70;99.90
51035;DHT22;37062;52.546;13.230;2023-06-22T06:45:57;28.90;99.90
51035;DHT22;37062;52.546;13.230;2023-06-22T06:48:25;28.90;99.90
51035;DHT22;37062;52.546;13.230;2023-06-22T06:50:53;28.80;99.90
51035;DHT22;37062;52.546;13.230;2023-06-22T06:53:22;28.80;99.90
51035;DHT22;37062;52.546;13.230;2023-06-22T06:55:50;28.70;99.90
51035;DHT22;37062;52.546;13.230;2023-06-22T06:58:18;28.70;99.90
51035;DHT22;37062;52.546;13.230;2023-06-22T07:00:48;28.50;99.90
51035;DHT22;37062;52.546;13.230;2023-06-22T07:03:16;28.40;99.90
51035;DHT22;37062;52.546;13.230;2023-06-22T07:05:44;28.50;99.90
51035;DHT22;37062;52.546;13.230;2023-06-22T07:08:13;28.40;99.90
51035;DHT22;37062;52.546;13.230;2023-06-22T07:10:41;28.30;99.90
51035;DHT22;37062;52.546;13.230;2023-06-22T07:13:09;28.30;99.90
51035;DHT22;37062;52.546;13.230;2023-06-22T07:15:37;28.30;99.90
51035;DHT22;37062;52.546;13.230;2023-06-22T07:18:10;28.10;99.90
51035;DHT22;37062;52.546;13.230;2023-06-22T07:20:38;27.90;99.90
51035;DHT22;37062;52.546;13.230;2023-06-22T07:23:08;27.80;99.90
51035;DHT22;37062;52.546;13.230;2023-06-22T07:25:36;27.70;99.90
51035;DHT22;37062;52.546;13.230;2023-06-22T07:28:06;27.60;99.90
51035;DHT22;37062;52.546;13.230;2023-06-22T07:30:34;27.40;99.90
51035;DHT22;37062;52.546;13.230;2023-06-22T07:33:02;27.60;99.90
51035;DHT22;37062;52.546;13.230;2023-06-22T07:35:34;27.70;99.90
51035;DHT22;37062;52.546;13.230;2023-06-22T07:38:03;27.80;99.90
51035;DHT22;37062;52.546;13.230;2023-06-22T07:40:32;27.80;99.90
51035;DHT22;37062;52.546;13.230;2023-06-22T07:43:02;27.70;99.90
51035;DHT22;37062;52.546;13.230;2023-06-22T07:45:30;27.50;99.90
51035;DHT22;37062;52.546;13.230;2023-06-22T07:48:00;27.40;99.90
51035;DHT22;37062;52.546;13.230;2023-06-22T07:50:29;27.60;99.90
51035;DHT22;37062;52.546;13.230;2023-06-22T07:52:59;27.90;99.90
51035;DHT22;37062;52.546;13.230;2023-06-22T07:55:28;28.10;99.90
51035;DHT22;37062;52.546;13.230;2023-06-22T07:57:56;28.10;99.90
51035;DHT22;37062;52.546;13.230;2023-06-22T08:00:25;28.10;99.90
51035;DHT22;37062;52.546;13.230;2023-06-22T08:02:53;28.30;99.90
51035;DHT22;37062;52.546;13.230;2023-06-22T08:05:21;28.30;99.90
51035;DHT22;37062;52.546;13.230;2023-06-22T08:07:50;28.30;99.90
51035;DHT22;37062;52.546;13.230;2023-06-22T08:10:21;28.60;99.90
51035;DHT22;37062;52.546;13.230;2023-06-22T08:12:50;28.80;99.90
51035;DHT22;37062;52.546;13.230;2023-06-22T08:15:19;29.30;99.90
51035;DHT22;37062;52.546;13.230;2023-06-22T08:17:49;29.80;99.90
51035;DHT22;37062;52.546;13.230;2023-06-22T08:20:19;30.00;99.90
51035;DHT22;37062;52.546;13.230;2023-06-22T08:22:47;29.90;99.90
51035;DHT22;37062;52.546;13.230;2023-06-22T08:25:16;29.90;99.90
51035;DHT22;37062;52.546;13.230;2023-06-22T08:27:46;29.90;99.90
51035;DHT22;37062;52.546;13.230;2023-06-22T08:30:15;29.60;99.90
51035;DHT22;37062;52.546;13.230;2023-06-22T08:32:44;29.30;99.90
51035;DHT22;37062;52.546;13.230;2023-06-22T08:35:12;29.20;99.90
51035;DHT22;37062;52.546;13.230;2023-06-22T08:37:40;29.00;99.90
51035;DHT22;37062;52.546;13.230;2023-06-22T08:40:09;28.90;99.90
51035;DHT22;37062;52.546;13.230;2023-06-22T08:42:39;28.70;99.90
51035;DHT22;37062;52.546;13.230;2023-06-22T08:45:10;28.70;99.90
51035;DHT22;37062;52.546;13.230;2023-06-22T08:47:39;28.50;99.90
51035;DHT22;37062;52.546;13.230;2023-06-22T08:50:09;28.60;99.90
51035;DHT22;37062;52.546;13.230;2023-06-22T08:52:38;28.70;99.90
51035;DHT22;37062;52.546;13.230;2023-06-22T08:55:09;28.90;99.90
51035;DHT22;37062;52.546;13.230;2023-06-22T08:57:38;29.20;99.90
51035;DHT22;37062;52.546;13.230;2023-06-22T09:00:08;29.20;99.90
51035;DHT22;37062;52.546;13.230;2023-06-22T09:02:48;29.40;99.90
51035;DHT22;37062;52.546;13.230;2023-06-22T09:05:17;29.30;99.90
51035;DHT22;37062;52.546;13.230;2023-06-22T09:07:45;29.20;99.90
51035;DHT22;37062;52.546;13.230;2023-06-22T09:10:14;29.30;99.90
51035;DHT22;37062;52.546;13.230;2023-06-22T09:12:42;29.60;99.90
51035;DHT22;37062;52.546;13.230;2023-06-22T09:15:10;29.40;99.90
51035;DHT22;37062;52.546;13.230;2023-06-22T09:17:43;29.30;99.90
51035;DHT22;37062;52.546;13.230;2023-06-22T09:20:18;29.20;99.90
51035;DHT22;37062;52.546;13.230;2023-06-22T09:22:46;29.30;99.90
51035;DHT22;37062;52.546;13.230;2023-06-22T09:25:15;29.60;99.90
51035;DHT22;37062;52.546;13.230;2023-06-22T09:27:43;29.60;99.90
51035;DHT22;37062;52.546;13.230;2023-06-22T09:30:12;29.90;99.90
51035;DHT22;37062;52.546;13.230;2023-06-22T09:32:43;29.80;99.90
51035;DHT22;37062;52.546;13.230;2023-06-22T09:35:11;29.80;99.90
51035;DHT22;37062;52.546;13.230;2023-06-22T09:37:42;29.80;99.90
51035;DHT22;37062;52.546;13.230;2023-06-22T09:40:10;30.10;99.90
51035;DHT22;37062;52.546;13.230;2023-06-22T09:42:41;30.20;99.90
51035;DHT22;37062;52.546;13.230;2023-06-22T09:45:10;30.20;99.90
51035;DHT22;37062;52.546;13.230;2023-06-22T09:47:38;30.10;99.90
51035;DHT22;37062;52.546;13.230;2023-06-22T09:50:07;30.10;99.90
51035;DHT22;37062;52.546;13.230;2023-06-22T09:52:35;30.30;99.90
51035;DHT22;37062;52.546;13.230;2023-06-22T09:55:09;30.50;99.90
51035;DHT22;37062;52.546;13.230;2023-06-22T09:57:37;30.40;99.90
51035;DHT22;37062;52.546;13.230;2023-06-22T10:00:06;30.30;99.90
51035;DHT22;37062;52.546;13.230;2023-06-22T10:02:39;30.60;99.90
51035;DHT22;37062;52.546;13.230;2023-06-22T10:05:07;31.00;99.90
51035;DHT22;37062;52.546;13.230;2023-06-22T10:07:36;30.90;99.90
51035;DHT22;37062;52.546;13.230;2023-06-22T10:10:11;30.80;99.90
51035;DHT22;37062;52.546;13.230;2023-06-22T10:12:44;30.60;99.90
51035;DHT22;37062;52.546;13.230;2023-06-22T10:15:13;30.60;99.90
51035;DHT22;37062;52.546;13.230;2023-06-22T10:17:42;30.60;99.90
51035;DHT22;37062;52.546;13.230;2023-06-22T10:20:11;30.50;99.90
51035;DHT22;37062;52.546;13.230;2023-06-22T10:22:40;30.40;99.90
51035;DHT22;37062;52.546;13.230;2023-06-22T10:25:11;30.30;99.90
51035;DHT22;37062;52.546;13.230;2023-06-22T10:27:39;30.10;99.90
51035;DHT22;37062;52.546;13.230;2023-06-22T10:30:09;30.00;99.90
51035;DHT22;37062;52.546;13.230;2023-06-22T10:32:40;30.00;99.90
51035;DHT22;37062;52.546;13.230;2023-06-22T10:35:09;30.00;99.90
51035;DHT22;37062;52.546;13.230;2023-06-22T10:37:41;30.00;99.90
51035;DHT22;37062;52.546;13.230;2023-06-22T10:40:12;30.10;99.90
51035;DHT22;37062;52.546;13.230;2023-06-22T10:42:42;30.20;99.90
51035;DHT22;37062;52.546;13.230;2023-06-22T10:45:10;30.20;99.90
51035;DHT22;37062;52.546;13.230;2023-06-22T10:47:38;29.90;99.90
51035;DHT22;37062;52.546;13.230;2023-06-22T10:50:09;29.60;99.90
51035;DHT22;37062;52.546;13.230;2023-06-22T10:52:38;29.50;99.90
51035;DHT22;37062;52.546;13.230;2023-06-22T10:55:07;29.60;99.90
51035;DHT22;37062;52.546;13.230;2023-06-22T10:57:37;29.50;99.90
51035;DHT22;37062;52.546;13.230;2023-06-22T11:00:07;29.50;99.90
51035;DHT22;37062;52.546;13.230;2023-06-22T11:02:38;29.50;99.90
51035;DHT22;37062;52.546;13.230;2023-06-22T11:05:07;29.60;99.90
51035;DHT22;37062;52.546;13.230;2023-06-22T11:07:36;29.70;99.90
51035;DHT22;37062;52.546;13.230;2023-06-22T11:10:09;29.70;99.90
51035;DHT22;37062;52.546;13.230;2023-06-22T11:12:39;29.70;99.90
51035;DHT22;37062;52.546;13.230;2023-06-22T11:15:09;29.70;99.90
51035;DHT22;37062;52.546;13.230;2023-06-22T11:17:37;29.70;99.90
51035;DHT22;37062;52.546;13.230;2023-06-22T11:20:07;29.70;99.90
51035;DHT22;37062;52.546;13.230;2023-06-22T11:22:38;29.80;99.90
51035;DHT22;37062;52.546;13.230;2023-06-22T11:25:07;30.00;99.90
51035;DHT22;37062;52.546;13.230;2023-06-22T11:27:35;29.90;99.90
51035;DHT22;37062;52.546;13.230;2023-06-22T11:30:06;29.90;99.90
51035;DHT22;37062;52.546;13.230;2023-06-22T11:32:35;30.10;99.90
51035;DHT22;37062;52.546;13.230;2023-06-22T11:35:04;30.00;99.90
51035;DHT22;37062;52.546;13.230;2023-06-22T11:37:32;29.80;99.90
51035;DHT22;37062;52.546;13.230;2023-06-22T11:40:00;29.90;99.90
51035;DHT22;37062;52.546;13.230;2023-06-22T11:42:33;29.60;99.90
51035;DHT22;37062;52.546;13.230;2023-06-22T11:45:04;29.70;99.90
51035;DHT22;37062;52.546;13.230;2023-06-22T11:47:34;29.70;99.90
51035;DHT22;37062;52.546;13.230;2023-06-22T11:50:03;29.70;99.90
51035;DHT22;37062;52.546;13.230;2023-06-22T11:52:33;29.70;99.90
51035;DHT22;37062;52.546;13.230;2023-06-22T11:55:03;29.70;99.90
51035;DHT22;37062;52.546;13.230;2023-06-22T11:57:33;29.80;99.90
51035;DHT22;37062;52.546;13.230;2023-06-22T12:00:03;29.80;99.90
51035;DHT22;37062;52.546;13.230;2023-06-22T12:02:43;29.80;99.90
51035;DHT22;37062;52.546;13.230;2023-06-22T12:05:12;29.70;99.90
51035;DHT22;37062;52.546;13.230;2023-06-22T12:07:40;29.50;99.90
51035;DHT22;37062;52.546;13.230;2023-06-22T12:10:09;29.30;99.90
51035;DHT22;37062;52.546;13.230;2023-06-22T12:12:38;29.30;99.90
51035;DHT22;37062;52.546;13.230;2023-06-22T12:15:06;29.40;99.90
51035;DHT22;37062;52.546;13.230;2023-06-22T12:17:35;29.60;99.90
51035;DHT22;37062;52.546;13.230;2023-06-22T12:20:06;29.70;99.90
51035;DHT22;37062;52.546;13.230;2023-06-22T12:22:35;29.60;99.90
51035;DHT22;37062;52.546;13.230;2023-06-22T12:25:05;29.60;99.90
51035;DHT22;37062;52.546;13.230;2023-06-22T12:27:34;29.60;99.90
51035;DHT22;37062;52.546;13.230;2023-06-22T12:30:03;29.60;99.90
51035;DHT22;37062;52.546;13.230;2023-06-22T12:32:31;29.80;99.90
51035;DHT22;37062;52.546;13.230;2023-06-22T12:34:59;29.70;99.90
51035;DHT22;37062;52.546;13.230;2023-06-22T12:37:29;29.60;99.90
51035;DHT22;37062;52.546;13.230;2023-06-22T12:39:58;29.60;99.90
51035;DHT22;37062;52.546;13.230;2023-06-22T12:42:26;29.40;99.90
51035;DHT22;37062;52.546;13.230;2023-06-22T12:44:55;29.20;99.90
51035;DHT22;37062;52.546;13.230;2023-06-22T12:47:23;29.30;99.90
51035;DHT22;37062;52.546;13.230;2023-06-22T12:49:51;29.20;99.90
51035;DHT22;37062;52.546;13.230;2023-06-22T12:52:20;29.30;99.90
51035;DHT22;37062;52.546;13.230;2023-06-22T12:54:49;29.40;99.90
51035;DHT22;37062;52.546;13.230;2023-06-22T12:57:22;29.40;99.90
51035;DHT22;37062;52.546;13.230;2023-06-22T12:59:50;29.60;99.90
51035;DHT22;37062;52.546;13.230;2023-06-22T13:02:18;29.70;99.90
51035;DHT22;37062;52.546;13.230;2023-06-22T13:04:46;29.70;99.90
51035;DHT22;37062;52.546;13.230;2023-06-22T13:07:15;29.70;99.90
51035;DHT22;37062;52.546;13.230;2023-06-22T13:09:50;29.80;99.90
51035;DHT22;37062;52.546;13.230;2023-06-22T13:12:20;29.80;99.90
51035;DHT22;37062;52.546;13.230;2023-06-22T13:14:48;29.70;99.90
51035;DHT22;37062;52.546;13.230;2023-06-22T13:17:17;29.70;99.90
51035;DHT22;37062;52.546;13.230;2023-06-22T13:19:45;29.70;99.90
51035;DHT22;37062;52.546;13.230;2023-06-22T13:22:29;29.80;99.90
51035;DHT22;37062;52.546;13.230;2023-06-22T13:25:00;29.80;99.90
51035;DHT22;37062;52.546;13.230;2023-06-22T13:27:29;29.70;99.90
51035;DHT22;37062;52.546;13.230;2023-06-22T13:29:57;29.80;99.90
51035;DHT22;37062;52.546;13.230;2023-06-22T13:32:26;29.90;99.90
51035;DHT22;37062;52.546;13.230;2023-06-22T13:34:54;29.70;99.90
51035;DHT22;37062;52.546;13.230;2023-06-22T13:37:22;29.60;99.90
51035;DHT22;37062;52.546;13.230;2023-06-22T13:39:51;29.60;99.90
51035;DHT22;37062;52.546;13.230;2023-06-22T13:42:20;29.40;99.90
51035;DHT22;37062;52.546;13.230;2023-06-22T13:44:49;29.40;99.90
51035;DHT22;37062;52.546;13.230;2023-06-22T13:47:17;29.30;99.90
51035;DHT22;37062;52.546;13.230;2023-06-22T13:49:46;29.30;99.90
51035;DHT22;37062;52.546;13.230;2023-06-22T13:52:14;29.40;99.90
51035;DHT22;37062;52.546;13.230;2023-06-22T13:54:44;29.30;99.90
51035;DHT22;37062;52.546;13.230;2023-06-22T13:57:12;29.40;99.90
51035;DHT22;37062;52.546;13.230;2023-06-22T13:59:42;29.40;99.90
51035;DHT22;37062;52.546;13.230;2023-06-22T14:02:10;29.40;99.90
51035;DHT22;37062;52.546;13.230;2023-06-22T14:04:38;29.50;99.90
51035;DHT22;37062;52.546;13.230;2023-06-22T14:07:06;29.50;99.90
51035;DHT22;37062;52.546;13.230;2023-06-22T14:09:35;29.30;99.90
51035;DHT22;37062;52.546;13.230;2023-06-22T14:12:03;29.20;99.90
51035;DHT22;37062;52.546;13.230;2023-06-22T14:14:33;29.30;99.90
51035;DHT22;37062;52.546;13.230;2023-06-22T14:17:03;29.50;99.90
51035;DHT22;37062;52.546;13.230;2023-06-22T14:19:32;29.60;99.90
51035;DHT22;37062;52.546;13.230;2023-06-22T14:22:00;29.60;99.90
51035;DHT22;37062;52.546;13.230;2023-06-22T14:24:28;29.60;99.90
51035;DHT22;37062;52.546;13.230;2023-06-22T14:26:57;29.50;99.90
51035;DHT22;37062;52.546;13.230;2023-06-22T14:29:26;29.60;99.90
51035;DHT22;37062;52.546;13.230;2023-06-22T14:31:54;29.70;99.90
51035;DHT22;37062;52.546;13.230;2023-06-22T14:34:24;29.60;99.90
51035;DHT22;37062;52.546;13.230;2023-06-22T14:36:52;29.40;99.90
51035;DHT22;37062;52.546;13.230;2023-06-22T14:39:20;29.50;99.90
51035;DHT22;37062;52.546;13.230;2023-06-22T14:41:54;29.50;99.90
51035;DHT22;37062;52.546;13.230;2023-06-22T14:44:23;29.50;99.90
51035;DHT22;37062;52.546;13.230;2023-06-22T14:46:51;29.50;99.90
51035;DHT22;37062;52.546;13.230;2023-06-22T14:49:19;29.40;99.90
51035;DHT22;37062;52.546;13.230;2023-06-22T14:51:50;29.30;99.90
51035;DHT22;37062;52.546;13.230;2023-06-22T14:54:18;29.40;99.90
51035;DHT22;37062;52.546;13.230;2023-06-22T14:56:47;29.60;99.90
51035;DHT22;37062;52.546;13.230;2023-06-22T14:59:15;29.60;99.90
51035;DHT22;37062;52.546;13.230;2023-06-22T15:01:44;29.60;99.90
51035;DHT22;37062;52.546;13.230;2023-06-22T15:04:14;29.70;99.90
51035;DHT22;37062;52.546;13.230;2023-06-22T15:06:43;29.60;99.90
51035;DHT22;37062;52.546;13.230;2023-06-22T15:09:14;29.60;99.90
51035;DHT22;37062;52.546;13.230;2023-06-22T15:11:42;29.60;99.90
51035;DHT22;37062;52.546;13.230;2023-06-22T15:14:13;29.60;99.90
51035;DHT22;37062;52.546;13.230;2023-06-22T15:16:42;29.50;99.90
51035;DHT22;37062;52.546;13.230;2023-06-22T15:19:10;29.40;99.90
51035;DHT22;37062;52.546;13.230;2023-06-22T15:21:40;29.40;99.90
51035;DHT22;37062;52.546;13.230;2023-06-22T15:24:08;29.50;99.90
51035;DHT22;37062;52.546;13.230;2023-06-22T15:26:37;29.40;99.90
51035;DHT22;37062;52.546;13.230;2023-06-22T15:29:06;29.50;99.90